Jacqueline C — 2BON5 — position and weather

sailwx.info

Track history (hours):
 
Tides and Currents Weather Stations Pressure Air Temp Water Temp Dewpoint Dewpoint Depression Visibility Wind Speed Wind Dir Waves Ship Positions

Jacqueline C

Last reported at 2018-May-22 03:15 UTC. Time now 2018-May-26 23:28 UTC.
Position N 46°50' W 071°08'.

Length 138 m; draft 8.1 m.

Type: Ship. MMSI: 235067944.

Date/timePositionNaut miles runAvg speedWind from/ knotsBaromVisibWave heightAir tempDewpointWater temp
2018-May-22 03:15N 46°50' W 071°08'2 9.6
2018-May-22 02:59N 46°49' W 071°11'8911.3
2018-May-21 19:06N 46°04' W 073°03'113.3
2018-May-21 19:00N 46°04' W 073°05'611.8
2018-May-21 18:30N 45°60' W 073°11'713.3
2018-May-21 18:01N 45°54' W 073°14'713.5
2018-May-21 17:30N 45°48' W 073°20'16 1.9
2018-May-21 09:26N 45°34' W 073°30'3 7.1
2018-May-21 08:57N 45°31' W 073°31'1 3.3
2018-May-21 08:31N 45°30' W 073°31'0 0.8
2018-May-21 08:01N 45°29' W 073°31'2 4.3
2018-May-21 07:30N 45°27' W 073°30'3 6.3
2018-May-21 07:01N 45°24' W 073°33'1 2.0
2018-May-21 06:31N 45°24' W 073°34'1 2.2
2018-May-21 06:00N 45°24' W 073°36'3 5.8
2018-May-21 05:30N 45°25' W 073°40'3 5.3
2018-May-21 05:00N 45°24' W 073°43'4 7.2
2018-May-21 04:30N 45°23' W 073°48'5 9.2
2018-May-21 04:00N 45°20' W 073°53'2 3.9
2018-May-21 03:31N 45°19' W 073°55'1 1.5
2018-May-21 03:00N 45°18' W 073°56'0 0.2
2018-May-21 02:31N 45°18' W 073°56'0 0.1
2018-May-21 02:00N 45°18' W 073°56'1 2.5
2018-May-21 01:25N 45°17' W 073°57'4 7.9
2018-May-21 00:57N 45°14' W 073°60'5 9.8
2018-May-21 00:28N 45°14' W 074°07'  
2018-May-17 07:00N 45°31' W 083°19'912.0
2018-May-17 06:15N 45°38' W 083°28'711.8
2018-May-17 05:38N 45°43' W 083°35'  
2018-May-13 08:58N 45°43' W 083°40'511.3
2018-May-13 08:30N 45°39' W 083°36'510.6
2018-May-13 08:00N 45°34' W 083°32'510.7
2018-May-13 07:30N 45°30' W 083°27'611.2
2018-May-13 07:00N 45°25' W 083°23'  
Track history (hours):
 
Tides and Currents Weather Stations Pressure Air Temp Water Temp Dewpoint Dewpoint Depression Visibility Wind Speed Wind Dir Waves Ship Positions

Jacqueline C

Last reported at 2018-May-22 03:15 UTC. Time now 2018-May-26 23:28 UTC.
Position N 46°50' W 071°08'.

Length 138 m; draft 8.1 m.

Type: Ship. MMSI: 235067944.

Date/timePositionNaut miles runAvg speedWind from/ knotsBaromVisibWave heightAir tempDewpointWater temp
2018-May-22 03:15N 46°50' W 071°08'2 9.6
2018-May-22 02:59N 46°49' W 071°11'8911.3
2018-May-21 19:06N 46°04' W 073°03'113.3
2018-May-21 19:00N 46°04' W 073°05'611.8
2018-May-21 18:30N 45°60' W 073°11'713.3
2018-May-21 18:01N 45°54' W 073°14'713.5
2018-May-21 17:30N 45°48' W 073°20'16 1.9
2018-May-21 09:26N 45°34' W 073°30'3 7.1
2018-May-21 08:57N 45°31' W 073°31'1 3.3
2018-May-21 08:31N 45°30' W 073°31'0 0.8
2018-May-21 08:01N 45°29' W 073°31'2 4.3
2018-May-21 07:30N 45°27' W 073°30'3 6.3
2018-May-21 07:01N 45°24' W 073°33'1 2.0
2018-May-21 06:31N 45°24' W 073°34'1 2.2
2018-May-21 06:00N 45°24' W 073°36'3 5.8
2018-May-21 05:30N 45°25' W 073°40'3 5.3
2018-May-21 05:00N 45°24' W 073°43'4 7.2
2018-May-21 04:30N 45°23' W 073°48'5 9.2
2018-May-21 04:00N 45°20' W 073°53'2 3.9
2018-May-21 03:31N 45°19' W 073°55'1 1.5
2018-May-21 03:00N 45°18' W 073°56'0 0.2
2018-May-21 02:31N 45°18' W 073°56'0 0.1
2018-May-21 02:00N 45°18' W 073°56'1 2.5
2018-May-21 01:25N 45°17' W 073°57'4 7.9
2018-May-21 00:57N 45°14' W 073°60'5 9.8
2018-May-21 00:28N 45°14' W 074°07'  
2018-May-17 07:00N 45°31' W 083°19'912.0
2018-May-17 06:15N 45°38' W 083°28'711.8
2018-May-17 05:38N 45°43' W 083°35'  
2018-May-13 08:58N 45°43' W 083°40'511.3
2018-May-13 08:30N 45°39' W 083°36'510.6
2018-May-13 08:00N 45°34' W 083°32'510.7
2018-May-13 07:30N 45°30' W 083°27'611.2
2018-May-13 07:00N 45°25' W 083°23'  

Dump ship's entire track history